Time;durP1;ratioP1;P1;durP2;ratioP2;P2;SDS_P1;SDS_P2;PMS_P1;PMS_P2;Temp;Humidity;BMP_temperature;BMP_pressure;BME280_temperature;BME280_humidity;BME280_pressure;Samples;Min_cycle;Max_cycle;Signal;HPM_P1;HPM_P2
2021/05/24 00:00:00;;;;;;;0.88;0.88;;;;;;;;;;5134255;27;20172;-64
2021/05/24 00:02:26;;;;;;;1.42;1.38;;;;;;;;;;5134959;27;20193;-64
2021/05/24 00:04:52;;;;;;;1.63;1.50;;;;;;;;;;5134858;27;20561;-64
2021/05/24 00:07:18;;;;;;;0.83;0.83;;;;;;;;;;5134607;27;20459;-64
2021/05/24 00:09:44;;;;;;;1.07;0.80;;;;;;;;;;5134461;27;20409;-64
2021/05/24 00:12:10;;;;;;;0.53;0.53;;;;;;;;;;5134546;27;20523;-64
2021/05/24 00:14:38;;;;;;;0.55;0.55;;;;;;;;;;5134371;27;20465;-64
2021/05/24 00:17:05;;;;;;;0.50;0.50;;;;;;;;;;5134556;27;20234;-64
2021/05/24 00:19:31;;;;;;;2.25;0.70;;;;;;;;;;5134189;27;20558;-64
2021/05/24 00:21:56;;;;;;;0.60;0.40;;;;;;;;;;5134199;27;20181;-64
2021/05/24 00:24:23;;;;;;;0.80;0.70;;;;;;;;;;5134222;27;20798;-64
2021/05/24 00:26:49;;;;;;;0.55;0.55;;;;;;;;;;5134076;27;20406;-64
2021/05/24 00:29:19;;;;;;;0.88;0.88;;;;;;;;;;5133939;27;20184;-64
2021/05/24 00:31:45;;;;;;;1.02;1.02;;;;;;;;;;5133998;27;20208;-64
2021/05/24 00:34:12;;;;;;;0.60;0.60;;;;;;;;;;5134123;27;20203;-64
2021/05/24 00:36:38;;;;;;;0.70;0.70;;;;;;;;;;5133903;27;20516;-64
2021/05/24 00:39:07;;;;;;;0.95;0.93;;;;;;;;;;5133524;27;20174;-64
2021/05/24 00:41:34;;;;;;;0.50;0.50;;;;;;;;;;5133935;27;20206;-64
2021/05/24 00:44:00;;;;;;;0.80;0.80;;;;;;;;;;5133690;27;20841;-64
2021/05/24 00:46:26;;;;;;;0.50;0.50;;;;;;;;;;5133638;27;20183;-64
2021/05/24 00:48:51;;;;;;;0.90;0.90;;;;;;;;;;5133499;27;20258;-64
2021/05/24 00:51:17;;;;;;;0.70;0.70;;;;;;;;;;5133529;27;20434;-64
2021/05/24 00:53:43;;;;;;;1.08;1.05;;;;;;;;;;5133392;27;20458;-64
2021/05/24 00:56:09;;;;;;;0.40;0.40;;;;;;;;;;5133480;27;20240;-64
2021/05/24 00:58:35;;;;;;;0.98;0.90;;;;;;;;;;5133173;27;20173;-64
2021/05/24 01:01:01;;;;;;;1.23;1.10;;;;;;;;;;5133344;27;20686;-64
2021/05/24 01:03:27;;;;;;;1.60;0.70;;;;;;;;;;5132895;27;20202;-64
2021/05/24 01:05:53;;;;;;;1.20;1.13;;;;;;;;;;5133368;27;20413;-64
2021/05/24 01:08:19;;;;;;;0.98;0.88;;;;;;;;;;5133226;27;20451;-64
2021/05/24 01:10:45;;;;;;;0.87;0.87;;;;;;;;;;5132069;27;20195;-64
2021/05/24 01:13:13;;;;;;;0.70;0.70;;;;;;;;;;5133042;27;20461;-64
2021/05/24 01:15:39;;;;;;;0.77;0.70;;;;;;;;;;5133199;27;20539;-64
2021/05/24 01:18:06;;;;;;;0.90;0.90;;;;;;;;;;5133089;27;20164;-64
2021/05/24 01:20:32;;;;;;;1.23;1.13;;;;;;;;;;5132845;27;20255;-64
2021/05/24 01:25:31;;;;;;;2.15;1.45;;;;;;;;;;5132867;27;20175;-64
2021/05/24 01:27:58;;;;;;;0.80;0.80;;;;;;;;;;5132893;27;20176;-65
2021/05/24 01:30:24;;;;;;;3.63;1.95;;;;;;;;;;5132667;27;20257;-64
2021/05/24 01:32:50;;;;;;;0.50;0.50;;;;;;;;;;5132721;27;20762;-65
2021/05/24 01:35:17;;;;;;;0.73;0.73;;;;;;;;;;5132926;27;20179;-65
2021/05/24 01:37:43;;;;;;;0.77;0.77;;;;;;;;;;5114293;27;20176;-65
2021/05/24 01:40:09;;;;;;;2.03;1.20;;;;;;;;;;5132578;27;20266;-65
2021/05/24 01:42:35;;;;;;;1.00;1.00;;;;;;;;;;5114240;28;20438;-65
2021/05/24 01:45:01;;;;;;;3.35;1.05;;;;;;;;;;5132843;27;20173;-64
2021/05/24 01:47:27;;;;;;;0.95;0.95;;;;;;;;;;5132657;27;20169;-65
2021/05/24 01:49:53;;;;;;;1.50;1.40;;;;;;;;;;5132435;27;20611;-65
2021/05/24 01:52:19;;;;;;;0.77;0.77;;;;;;;;;;5132686;27;20799;-64
2021/05/24 01:54:46;;;;;;;0.60;0.60;;;;;;;;;;5132445;28;20520;-65
2021/05/24 01:57:13;;;;;;;0.85;0.80;;;;;;;;;;5132529;28;20220;-63
2021/05/24 01:59:40;;;;;;;0.95;0.95;;;;;;;;;;5132333;28;20175;-64
2021/05/24 02:02:06;;;;;;;0.98;0.98;;;;;;;;;;5132439;28;20302;-64
2021/05/24 02:04:32;;;;;;;1.60;1.08;;;;;;;;;;5132546;28;20212;-64
2021/05/24 02:06:58;;;;;;;1.15;1.00;;;;;;;;;;5132415;28;20231;-64
2021/05/24 02:09:28;;;;;;;0.90;0.90;;;;;;;;;;5132274;28;20200;-64
2021/05/24 02:11:54;;;;;;;1.00;1.00;;;;;;;;;;5132383;28;20193;-64
2021/05/24 02:14:21;;;;;;;0.93;0.93;;;;;;;;;;5132486;28;20259;-64
2021/05/24 02:16:49;;;;;;;0.70;0.70;;;;;;;;;;5132408;28;20209;-64
2021/05/24 02:19:16;;;;;;;0.70;0.70;;;;;;;;;;5113770;28;20172;-64
2021/05/24 02:21:42;;;;;;;0.80;0.80;;;;;;;;;;5133549;27;20211;-64
2021/05/24 02:24:08;;;;;;;0.47;0.47;;;;;;;;;;5136469;27;20177;-64
2021/05/24 02:26:35;;;;;;;1.05;0.70;;;;;;;;;;5134735;27;20694;-64
2021/05/24 02:29:01;;;;;;;0.70;0.70;;;;;;;;;;5114830;28;20516;-64
2021/05/24 02:31:27;;;;;;;1.20;1.10;;;;;;;;;;5115344;28;20299;-64
2021/05/24 02:33:53;;;;;;;0.70;0.70;;;;;;;;;;5115406;28;20648;-64
2021/05/24 02:36:21;;;;;;;0.77;0.77;;;;;;;;;;5115353;28;20417;-64
2021/05/24 02:38:48;;;;;;;1.98;1.70;;;;;;;;;;5115227;28;20252;-64
2021/05/24 02:41:14;;;;;;;0.55;0.55;;;;;;;;;;5115214;28;20228;-64
2021/05/24 02:43:40;;;;;;;0.75;0.75;;;;;;;;;;5115258;28;20660;-64
2021/05/24 02:46:06;;;;;;;0.80;0.80;;;;;;;;;;5115193;28;20205;-64
2021/05/24 02:48:32;;;;;;;1.30;1.00;;;;;;;;;;5114932;28;20204;-64
2021/05/24 02:50:58;;;;;;;1.90;1.80;;;;;;;;;;5115021;28;20883;-64
2021/05/24 02:53:24;;;;;;;0.70;0.70;;;;;;;;;;5115052;28;20462;-64
2021/05/24 02:55:50;;;;;;;5.27;1.27;;;;;;;;;;5096984;28;20177;-64
2021/05/24 02:58:16;;;;;;;0.60;0.60;;;;;;;;;;5114877;28;20888;-64
2021/05/24 03:00:42;;;;;;;0.90;0.80;;;;;;;;;;5114730;28;20414;-64
2021/05/24 03:03:09;;;;;;;0.70;0.70;;;;;;;;;;5114912;28;20476;-64
2021/05/24 03:05:35;;;;;;;1.35;1.25;;;;;;;;;;5114873;28;20233;-64
2021/05/24 03:08:01;;;;;;;1.55;1.45;;;;;;;;;;5114758;28;20569;-64
2021/05/24 03:10:27;;;;;;;0.63;0.63;;;;;;;;;;5114558;28;20215;-64
2021/05/24 03:12:54;;;;;;;0.93;0.73;;;;;;;;;;5114824;28;20197;-64
2021/05/24 03:15:20;;;;;;;0.80;0.80;;;;;;;;;;5114787;28;20178;-64
2021/05/24 03:17:46;;;;;;;0.68;0.68;;;;;;;;;;5114705;28;20173;-64
2021/05/24 03:20:13;;;;;;;2.53;1.50;;;;;;;;;;5114463;28;20207;-64
2021/05/24 03:22:39;;;;;;;1.02;0.80;;;;;;;;;;5096305;28;20197;-64
2021/05/24 03:25:06;;;;;;;0.75;0.75;;;;;;;;;;5114582;28;20173;-64
2021/05/24 03:27:32;;;;;;;0.98;0.98;;;;;;;;;;5114556;28;20189;-64
2021/05/24 03:29:58;;;;;;;0.77;0.77;;;;;;;;;;5114406;28;20170;-64
2021/05/24 03:32:24;;;;;;;0.70;0.70;;;;;;;;;;5115063;28;20215;-64
2021/05/24 03:34:50;;;;;;;0.83;0.83;;;;;;;;;;5113781;28;20561;-64
2021/05/24 03:37:16;;;;;;;0.83;0.83;;;;;;;;;;5114416;28;20404;-64
2021/05/24 03:39:42;;;;;;;0.75;0.75;;;;;;;;;;5114257;28;20981;-63
2021/05/24 03:42:08;;;;;;;0.70;0.60;;;;;;;;;;5114396;28;20223;-64
2021/05/24 03:44:36;;;;;;;0.85;0.82;;;;;;;;;;5114607;28;20777;-64
2021/05/24 03:47:02;;;;;;;0.60;0.60;;;;;;;;;;5114038;28;20215;-64
2021/05/24 03:49:28;;;;;;;1.00;1.00;;;;;;;;;;5113456;28;20166;-64
2021/05/24 03:51:54;;;;;;;1.00;1.00;;;;;;;;;;5114492;28;20423;-64
2021/05/24 03:54:20;;;;;;;2.25;1.67;;;;;;;;;;5114490;28;20457;-64
2021/05/24 03:56:47;;;;;;;1.23;1.13;;;;;;;;;;5114517;28;20172;-64
2021/05/24 03:59:14;;;;;;;1.20;1.05;;;;;;;;;;5114794;28;20434;-64
2021/05/24 04:01:40;;;;;;;0.77;0.60;;;;;;;;;;5114592;28;20215;-64
2021/05/24 04:04:06;;;;;;;1.23;1.23;;;;;;;;;;5114384;28;20176;-63
2021/05/24 04:06:33;;;;;;;1.00;1.00;;;;;;;;;;5114438;28;20197;-63
2021/05/24 04:09:00;;;;;;;0.80;0.75;;;;;;;;;;5114397;28;20237;-63
2021/05/24 04:11:26;;;;;;;0.60;0.60;;;;;;;;;;5114292;28;20197;-63
2021/05/24 04:13:53;;;;;;;1.63;1.53;;;;;;;;;;5114243;28;20204;-64
2021/05/24 04:16:19;;;;;;;0.68;0.57;;;;;;;;;;5114069;28;20392;-63
2021/05/24 04:18:48;;;;;;;1.20;1.10;;;;;;;;;;5113855;28;20197;-63
2021/05/24 04:21:14;;;;;;;0.70;0.70;;;;;;;;;;5113935;28;20243;-64
2021/05/24 04:23:41;;;;;;;0.85;0.85;;;;;;;;;;5095647;28;20179;-63
2021/05/24 04:26:07;;;;;;;1.17;1.08;;;;;;;;;;5113849;28;20183;-64
2021/05/24 04:28:33;;;;;;;2.25;0.55;;;;;;;;;;5113542;28;20231;-64
2021/05/24 04:31:00;;;;;;;0.73;0.73;;;;;;;;;;5113704;28;20200;-64
2021/05/24 04:33:26;;;;;;;0.50;0.50;;;;;;;;;;5113526;28;20466;-64
2021/05/24 04:35:53;;;;;;;2.25;2.15;;;;;;;;;;5113779;28;20173;-64
2021/05/24 04:38:18;;;;;;;0.60;0.60;;;;;;;;;;5113363;28;20536;-64
2021/05/24 04:40:46;;;;;;;0.73;0.73;;;;;;;;;;5113143;28;20219;-64
2021/05/24 04:43:12;;;;;;;1.02;1.02;;;;;;;;;;5113324;28;20455;-64
2021/05/24 04:45:38;;;;;;;0.77;0.77;;;;;;;;;;5113353;28;20256;-64
2021/05/24 04:48:04;;;;;;;0.60;0.60;;;;;;;;;;5113207;28;20305;-64
2021/05/24 04:50:30;;;;;;;1.15;1.02;;;;;;;;;;5112918;28;20180;-64
2021/05/24 04:52:56;;;;;;;0.97;0.97;;;;;;;;;;5112989;28;20196;-64
2021/05/24 04:55:22;;;;;;;0.60;0.60;;;;;;;;;;5112759;28;20962;-64
2021/05/24 04:57:48;;;;;;;0.70;0.70;;;;;;;;;;5112936;28;20489;-64
2021/05/24 05:00:15;;;;;;;0.50;0.50;;;;;;;;;;5112680;28;20257;-64
2021/05/24 05:02:41;;;;;;;0.70;0.70;;;;;;;;;;5112646;28;20462;-64
2021/05/24 05:05:08;;;;;;;0.77;0.77;;;;;;;;;;5112603;28;20908;-64
2021/05/24 05:07:34;;;;;;;0.60;0.60;;;;;;;;;;5112547;28;20640;-63
2021/05/24 05:10:01;;;;;;;1.15;1.13;;;;;;;;;;5112287;28;20655;-64
2021/05/24 05:12:28;;;;;;;1.05;1.00;;;;;;;;;;5112517;28;20185;-64
2021/05/24 05:14:54;;;;;;;1.85;1.02;;;;;;;;;;5112495;28;20193;-63
2021/05/24 05:17:20;;;;;;;0.63;0.63;;;;;;;;;;5112440;28;20627;-64
2021/05/24 05:19:46;;;;;;;1.13;0.80;;;;;;;;;;5112394;28;20886;-64
2021/05/24 05:22:12;;;;;;;0.50;0.50;;;;;;;;;;5112301;28;20237;-64
2021/05/24 05:24:38;;;;;;;0.70;0.70;;;;;;;;;;5112478;28;20760;-64
2021/05/24 05:27:04;;;;;;;0.50;0.50;;;;;;;;;;5112403;28;20491;-64
2021/05/24 05:29:30;;;;;;;0.70;0.60;;;;;;;;;;5112410;28;20898;-64
2021/05/24 05:31:56;;;;;;;0.60;0.60;;;;;;;;;;5112233;28;20215;-63
2021/05/24 05:34:22;;;;;;;1.03;0.70;;;;;;;;;;5112316;28;20457;-64
2021/05/24 05:36:48;;;;;;;0.75;0.75;;;;;;;;;;5112198;28;20402;-64
2021/05/24 05:39:14;;;;;;;0.83;0.70;;;;;;;;;;5112043;28;20170;-64
2021/05/24 05:41:40;;;;;;;0.70;0.70;;;;;;;;;;5112174;28;20953;-64
2021/05/24 05:44:06;;;;;;;0.60;0.60;;;;;;;;;;5112226;28;20395;-64
2021/05/24 05:46:33;;;;;;;0.95;0.95;;;;;;;;;;5112304;28;20648;-64
2021/05/24 05:48:59;;;;;;;1.10;0.98;;;;;;;;;;5112251;28;20651;-64
2021/05/24 05:51:26;;;;;;;1.30;1.20;;;;;;;;;;5112104;28;20672;-64
2021/05/24 05:53:52;;;;;;;0.90;0.85;;;;;;;;;;5111994;28;20192;-64
2021/05/24 05:56:18;;;;;;;1.08;1.08;;;;;;;;;;5111576;28;20194;-64
2021/05/24 05:58:44;;;;;;;0.93;0.93;;;;;;;;;;5112084;28;20169;-64
2021/05/24 06:01:10;;;;;;;2.37;1.20;;;;;;;;;;5111955;28;20584;-64
2021/05/24 06:03:36;;;;;;;1.57;1.47;;;;;;;;;;5112160;28;20403;-64
2021/05/24 06:06:02;;;;;;;2.30;1.83;;;;;;;;;;5111942;28;20903;-64
2021/05/24 06:08:28;;;;;;;0.90;0.90;;;;;;;;;;5111634;28;20407;-64
2021/05/24 06:10:56;;;;;;;1.30;1.20;;;;;;;;;;5112075;28;20208;-64
2021/05/24 06:13:22;;;;;;;0.63;0.63;;;;;;;;;;5111804;28;20443;-64
2021/05/24 06:15:48;;;;;;;1.40;1.30;;;;;;;;;;5111846;28;20215;-64
2021/05/24 06:18:14;;;;;;;1.57;1.40;;;;;;;;;;5111805;28;20395;-64
2021/05/24 06:20:43;;;;;;;1.47;1.37;;;;;;;;;;5111498;28;20404;-64
2021/05/24 06:23:09;;;;;;;1.35;1.02;;;;;;;;;;5112329;28;20461;-64
2021/05/24 06:25:36;;;;;;;0.93;0.82;;;;;;;;;;5111982;28;20174;-64
2021/05/24 06:28:02;;;;;;;1.30;1.20;;;;;;;;;;5111679;28;20177;-64
2021/05/24 06:30:28;;;;;;;0.82;0.82;;;;;;;;;;5111465;28;20245;-64
2021/05/24 06:32:54;;;;;;;1.30;1.20;;;;;;;;;;5111568;28;20186;-64
2021/05/24 06:35:21;;;;;;;0.93;0.85;;;;;;;;;;5111468;28;20415;-64
2021/05/24 06:37:48;;;;;;;1.02;1.02;;;;;;;;;;5111666;28;20158;-64
2021/05/24 06:40:14;;;;;;;1.10;1.10;;;;;;;;;;5111126;28;20629;-64
2021/05/24 06:42:40;;;;;;;0.90;0.90;;;;;;;;;;5111621;28;20205;-64
2021/05/24 06:45:08;;;;;;;1.40;1.30;;;;;;;;;;5111762;28;20169;-64
2021/05/24 06:47:34;;;;;;;10.77;1.60;;;;;;;;;;5111691;28;20253;-64
2021/05/24 06:50:00;;;;;;;1.17;1.17;;;;;;;;;;5111199;28;20274;-64
2021/05/24 06:52:26;;;;;;;4.53;1.20;;;;;;;;;;5111528;28;20833;-64
2021/05/24 06:54:52;;;;;;;3.40;1.37;;;;;;;;;;5111547;28;20968;-64
2021/05/24 06:57:18;;;;;;;1.13;1.00;;;;;;;;;;5111446;28;20453;-64
2021/05/24 06:59:44;;;;;;;1.17;1.17;;;;;;;;;;5111292;28;20392;-64
2021/05/24 07:02:10;;;;;;;1.20;1.10;;;;;;;;;;5111416;28;20420;-64
2021/05/24 07:04:37;;;;;;;0.83;0.83;;;;;;;;;;5111316;28;20399;-64
2021/05/24 07:07:04;;;;;;;1.10;1.02;;;;;;;;;;5111441;28;20488;-64
2021/05/24 07:09:30;;;;;;;0.90;0.90;;;;;;;;;;5113640;28;20162;-64
2021/05/24 07:11:56;;;;;;;0.70;0.70;;;;;;;;;;5115017;28;20190;-64
2021/05/24 07:14:22;;;;;;;1.27;1.27;;;;;;;;;;5114855;28;20212;-64
2021/05/24 07:16:50;;;;;;;0.90;0.90;;;;;;;;;;5114963;28;20479;-64
2021/05/24 07:19:16;;;;;;;1.20;1.08;;;;;;;;;;5114571;28;20397;-64
2021/05/24 07:21:42;;;;;;;0.80;0.70;;;;;;;;;;5114818;28;20691;-65
2021/05/24 07:24:08;;;;;;;1.20;1.10;;;;;;;;;;5115126;28;20403;-64
2021/05/24 07:26:34;;;;;;;1.02;0.85;;;;;;;;;;5114876;28;20959;-65
2021/05/24 07:29:00;;;;;;;1.37;1.27;;;;;;;;;;5114520;28;20244;-65
2021/05/24 07:31:26;;;;;;;0.70;0.70;;;;;;;;;;5114549;28;20439;-64
2021/05/24 07:33:52;;;;;;;6.00;0.93;;;;;;;;;;5114655;28;20479;-65
2021/05/24 07:36:18;;;;;;;0.80;0.80;;;;;;;;;;5114927;28;20396;-65
2021/05/24 07:38:43;;;;;;;0.97;0.97;;;;;;;;;;5113711;28;20460;-65
2021/05/24 07:41:09;;;;;;;0.77;0.77;;;;;;;;;;5112218;28;20481;-64
2021/05/24 07:43:36;;;;;;;0.80;0.80;;;;;;;;;;5114071;28;20866;-65
2021/05/24 07:46:02;;;;;;;1.17;1.13;;;;;;;;;;5113996;28;20405;-64
2021/05/24 07:48:28;;;;;;;0.83;0.83;;;;;;;;;;5113593;28;20257;-65
2021/05/24 07:50:54;;;;;;;0.70;0.70;;;;;;;;;;5113993;28;20483;-65
2021/05/24 07:53:20;;;;;;;0.60;0.60;;;;;;;;;;5113896;28;20540;-65
2021/05/24 07:55:46;;;;;;;1.73;0.70;;;;;;;;;;5114085;28;20404;-65
2021/05/24 07:58:11;;;;;;;0.90;0.90;;;;;;;;;;5113949;28;20475;-64
2021/05/24 08:00:37;;;;;;;0.90;0.90;;;;;;;;;;5113574;28;20414;-64
2021/05/24 08:03:03;;;;;;;0.60;0.60;;;;;;;;;;5113716;28;20912;-64
2021/05/24 08:05:30;;;;;;;1.02;0.73;;;;;;;;;;5113864;28;20181;-64
2021/05/24 08:07:56;;;;;;;0.50;0.50;;;;;;;;;;5113958;28;20181;-64
2021/05/24 08:10:22;;;;;;;0.40;0.40;;;;;;;;;;5113630;28;20765;-64
2021/05/24 08:12:48;;;;;;;0.93;0.90;;;;;;;;;;5113479;28;20171;-64
2021/05/24 08:15:18;;;;;;;0.90;0.90;;;;;;;;;;5113416;28;20400;-64
2021/05/24 08:17:44;;;;;;;1.10;1.00;;;;;;;;;;5113693;28;20823;-64
2021/05/24 08:20:11;;;;;;;0.93;0.93;;;;;;;;;;5113453;28;20404;-64
2021/05/24 08:22:38;;;;;;;0.50;0.40;;;;;;;;;;5113895;28;20494;-64
2021/05/24 08:25:04;;;;;;;0.67;0.67;;;;;;;;;;5113679;28;20910;-64
2021/05/24 08:27:30;;;;;;;0.50;0.50;;;;;;;;;;5113646;28;20916;-64
2021/05/24 08:29:56;;;;;;;0.50;0.50;;;;;;;;;;5113305;28;20382;-64
2021/05/24 08:32:22;;;;;;;0.50;0.50;;;;;;;;;;5113335;28;20455;-64
2021/05/24 08:34:48;;;;;;;0.63;0.63;;;;;;;;;;5113413;28;20957;-64
2021/05/24 08:37:14;;;;;;;0.97;0.77;;;;;;;;;;5113397;28;20938;-65
2021/05/24 08:39:42;;;;;;;0.70;0.70;;;;;;;;;;5113302;28;21187;-65
2021/05/24 08:42:08;;;;;;;0.70;0.70;;;;;;;;;;5113320;28;20435;-65
2021/05/24 08:44:37;;;;;;;0.63;0.63;;;;;;;;;;5113133;28;20412;-65
2021/05/24 08:47:03;;;;;;;0.60;0.60;;;;;;;;;;5113325;28;20407;-65
2021/05/24 08:49:30;;;;;;;1.10;1.00;;;;;;;;;;5112907;28;20468;-64
2021/05/24 08:51:56;;;;;;;1.00;0.90;;;;;;;;;;5111596;28;20522;-64
2021/05/24 08:54:22;;;;;;;0.50;0.50;;;;;;;;;;5112593;28;20569;-65
2021/05/24 08:56:48;;;;;;;1.20;0.70;;;;;;;;;;5112533;28;20385;-65
2021/05/24 08:59:14;;;;;;;0.93;0.70;;;;;;;;;;5112175;28;20738;-65
2021/05/24 09:01:40;;;;;;;0.50;0.40;;;;;;;;;;5112385;28;20467;-65
2021/05/24 09:04:06;;;;;;;0.70;0.70;;;;;;;;;;5112361;28;20435;-65
2021/05/24 09:06:47;;;;;;;0.63;0.63;;;;;;;;;;5112243;28;20390;-65
2021/05/24 09:09:18;;;;;;;1.57;0.90;;;;;;;;;;5112029;28;20382;-65
2021/05/24 09:11:44;;;;;;;0.60;0.60;;;;;;;;;;5111969;28;20798;-64
2021/05/24 09:14:18;;;;;;;1.10;0.77;;;;;;;;;;5112023;28;20777;-64
2021/05/24 09:16:45;;;;;;;0.97;0.60;;;;;;;;;;5111918;28;20436;-65
2021/05/24 09:19:15;;;;;;;0.50;0.50;;;;;;;;;;5111628;28;20487;-65
2021/05/24 09:21:51;;;;;;;0.63;0.60;;;;;;;;;;5111871;28;20419;-65
2021/05/24 09:24:26;;;;;;;1.00;0.60;;;;;;;;;;5111813;28;20385;-64
2021/05/24 09:26:52;;;;;;;0.70;0.70;;;;;;;;;;5110662;28;20386;-65
2021/05/24 09:29:22;;;;;;;0.60;0.50;;;;;;;;;;5111565;28;20418;-65
2021/05/24 09:31:48;;;;;;;0.50;0.40;;;;;;;;;;5112081;28;20451;-65
2021/05/24 09:34:20;;;;;;;0.50;0.40;;;;;;;;;;5111800;28;20966;-65
2021/05/24 09:36:46;;;;;;;0.97;0.70;;;;;;;;;;5111805;28;20395;-65
2021/05/24 09:39:12;;;;;;;0.60;0.43;;;;;;;;;;5111499;28;20411;-65
2021/05/24 09:41:45;;;;;;;1.30;0.70;;;;;;;;;;5111551;28;20477;-65
2021/05/24 09:44:20;;;;;;;0.50;0.50;;;;;;;;;;5111735;28;20795;-65
2021/05/24 09:46:48;;;;;;;0.77;0.63;;;;;;;;;;5111540;28;20411;-65
2021/05/24 09:49:14;;;;;;;0.70;0.50;;;;;;;;;;5110912;28;20382;-65
2021/05/24 09:51:39;;;;;;;0.60;0.57;;;;;;;;;;5111487;28;20431;-65
2021/05/24 09:54:06;;;;;;;0.87;0.80;;;;;;;;;;5111425;28;20460;-65
2021/05/24 09:56:32;;;;;;;0.60;0.60;;;;;;;;;;5111459;28;20381;-64
2021/05/24 09:59:01;;;;;;;0.50;0.50;;;;;;;;;;5111182;28;20409;-64
2021/05/24 10:01:31;;;;;;;0.70;0.60;;;;;;;;;;5111358;28;20453;-65
2021/05/24 10:04:00;;;;;;;0.60;0.40;;;;;;;;;;5111402;28;20411;-64
2021/05/24 10:06:26;;;;;;;0.53;0.50;;;;;;;;;;5111568;28;20461;-64
2021/05/24 10:08:54;;;;;;;0.50;0.50;;;;;;;;;;5111066;28;20378;-64
2021/05/24 10:11:20;;;;;;;0.70;0.70;;;;;;;;;;5111281;28;20419;-64
2021/05/24 10:13:47;;;;;;;0.50;0.50;;;;;;;;;;5111262;28;20502;-65
2021/05/24 10:16:14;;;;;;;0.60;0.40;;;;;;;;;;5111264;28;20822;-64
2021/05/24 10:18:40;;;;;;;0.60;0.60;;;;;;;;;;5110874;28;20412;-64
2021/05/24 10:21:07;;;;;;;0.83;0.80;;;;;;;;;;5111473;28;20480;-64
2021/05/24 10:23:33;;;;;;;0.80;0.40;;;;;;;;;;5111195;28;20378;-64
2021/05/24 10:26:00;;;;;;;0.60;0.60;;;;;;;;;;5111428;28;20450;-64
2021/05/24 10:28:27;;;;;;;0.77;0.70;;;;;;;;;;5111147;28;20390;-65
2021/05/24 10:30:53;;;;;;;0.40;0.40;;;;;;;;;;5111311;28;20902;-64
2021/05/24 10:33:22;;;;;;;0.53;0.53;;;;;;;;;;5111331;28;20465;-64
2021/05/24 10:35:48;;;;;;;0.60;0.50;;;;;;;;;;5111466;28;20759;-64
2021/05/24 10:38:21;;;;;;;0.60;0.60;;;;;;;;;;5111384;28;20509;-64
2021/05/24 10:40:47;;;;;;;0.50;0.40;;;;;;;;;;5111158;28;20481;-64
2021/05/24 10:43:17;;;;;;;0.40;0.30;;;;;;;;;;5113351;28;20407;-64
2021/05/24 10:45:43;;;;;;;0.70;0.50;;;;;;;;;;5115502;28;20437;-64
2021/05/24 10:48:09;;;;;;;0.50;0.40;;;;;;;;;;5115158;28;20738;-64
2021/05/24 10:50:36;;;;;;;0.80;0.50;;;;;;;;;;5114863;28;20408;-64
2021/05/24 10:53:20;;;;;;;0.60;0.60;;;;;;;;;;5115051;28;20404;-64
2021/05/24 10:55:49;;;;;;;0.70;0.60;;;;;;;;;;5114828;28;20421;-64
2021/05/24 10:58:16;;;;;;;1.37;0.70;;;;;;;;;;5115211;28;20399;-64
2021/05/24 11:00:56;;;;;;;0.87;0.70;;;;;;;;;;5114705;28;20423;-64
2021/05/24 11:03:22;;;;;;;0.60;0.60;;;;;;;;;;5114954;28;20411;-64
2021/05/24 11:06:06;;;;;;;0.70;0.63;;;;;;;;;;5114824;28;20378;-64
2021/05/24 11:08:34;;;;;;;0.40;0.40;;;;;;;;;;5114459;28;20443;-64
2021/05/24 11:11:16;;;;;;;0.43;0.40;;;;;;;;;;5114360;28;20423;-64
2021/05/24 11:14:02;;;;;;;0.60;0.60;;;;;;;;;;5114160;28;20466;-65
2021/05/24 11:16:29;;;;;;;0.60;0.50;;;;;;;;;;5113879;28;20903;-64
2021/05/24 11:19:04;;;;;;;0.47;0.40;;;;;;;;;;5113619;28;20881;-64
2021/05/24 11:21:30;;;;;;;0.60;0.60;;;;;;;;;;5114115;28;20945;-64
2021/05/24 11:26:28;;;;;;;0.70;0.60;;;;;;;;;;5113216;28;20407;-64
2021/05/24 11:28:54;;;;;;;0.40;0.40;;;;;;;;;;5093466;28;20398;-65
2021/05/24 11:31:21;;;;;;;0.97;0.60;;;;;;;;;;5111778;28;20440;-64
2021/05/24 11:33:48;;;;;;;0.43;0.40;;;;;;;;;;5112746;28;20459;-65
2021/05/24 11:36:15;;;;;;;0.60;0.60;;;;;;;;;;5114031;28;20374;-65
2021/05/24 11:38:58;;;;;;;0.50;0.50;;;;;;;;;;5113389;28;20423;-64
2021/05/24 11:41:29;;;;;;;0.90;0.63;;;;;;;;;;5113593;28;20415;-65
2021/05/24 11:43:55;;;;;;;0.70;0.60;;;;;;;;;;5113584;28;20400;-65
2021/05/24 11:46:21;;;;;;;0.77;0.47;;;;;;;;;;5095088;28;20439;-65
2021/05/24 11:48:49;;;;;;;0.63;0.53;;;;;;;;;;5113653;28;20438;-64
2021/05/24 11:51:16;;;;;;;1.03;0.60;;;;;;;;;;5113193;28;20417;-64
2021/05/24 11:54:00;;;;;;;0.80;0.50;;;;;;;;;;5111574;28;20451;-64
2021/05/24 11:56:35;;;;;;;0.97;0.63;;;;;;;;;;5113658;28;20918;-64
2021/05/24 11:59:01;;;;;;;0.70;0.67;;;;;;;;;;5113009;28;20414;-64
2021/05/24 12:01:28;;;;;;;0.47;0.43;;;;;;;;;;5112930;28;20945;-64
2021/05/24 12:03:55;;;;;;;0.60;0.50;;;;;;;;;;5113293;28;20410;-64
2021/05/24 12:06:21;;;;;;;0.60;0.50;;;;;;;;;;5113406;28;20406;-64
2021/05/24 12:08:47;;;;;;;0.50;0.50;;;;;;;;;;5113073;28;20404;-64
2021/05/24 12:11:14;;;;;;;0.40;0.40;;;;;;;;;;5113345;28;20502;-64
2021/05/24 12:14:00;;;;;;;1.07;0.60;;;;;;;;;;5113513;28;20459;-64
2021/05/24 12:16:26;;;;;;;0.50;0.50;;;;;;;;;;5113486;28;20445;-64
2021/05/24 12:18:53;;;;;;;0.40;0.40;;;;;;;;;;5112774;28;20444;-64
2021/05/24 12:21:34;;;;;;;0.57;0.57;;;;;;;;;;5112727;28;20774;-64
2021/05/24 12:24:01;;;;;;;0.80;0.70;;;;;;;;;;5112931;28;20437;-64
2021/05/24 12:26:27;;;;;;;0.70;0.70;;;;;;;;;;5113332;28;20510;-64
2021/05/24 12:28:54;;;;;;;0.80;0.70;;;;;;;;;;5112949;28;20430;-64
2021/05/24 12:31:21;;;;;;;0.50;0.50;;;;;;;;;;5112961;28;20432;-64
2021/05/24 12:33:47;;;;;;;1.77;0.60;;;;;;;;;;5116636;28;20482;-64
2021/05/24 12:36:19;;;;;;;0.80;0.60;;;;;;;;;;5118384;28;20436;-64
2021/05/24 12:38:51;;;;;;;0.60;0.60;;;;;;;;;;5121177;27;20921;-64
2021/05/24 12:41:19;;;;;;;0.63;0.57;;;;;;;;;;5117297;27;20446;-64
2021/05/24 12:43:49;;;;;;;0.90;0.90;;;;;;;;;;5118717;27;20433;-64
2021/05/24 12:46:16;;;;;;;0.57;0.57;;;;;;;;;;5115679;27;20507;-64
2021/05/24 12:48:43;;;;;;;0.60;0.60;;;;;;;;;;5125723;27;20418;-64
2021/05/24 12:51:16;;;;;;;0.77;0.50;;;;;;;;;;5118445;27;20431;-64
2021/05/24 12:53:50;;;;;;;0.50;0.50;;;;;;;;;;5125625;27;20792;-64
2021/05/24 12:56:16;;;;;;;0.77;0.77;;;;;;;;;;5110863;27;20931;-64
2021/05/24 12:58:42;;;;;;;0.97;0.67;;;;;;;;;;5132478;27;20407;-64
2021/05/24 13:01:08;;;;;;;0.43;0.43;;;;;;;;;;5119226;27;20466;-64
2021/05/24 13:03:54;;;;;;;0.40;0.40;;;;;;;;;;5092927;27;20422;-64
2021/05/24 13:06:20;;;;;;;0.57;0.57;;;;;;;;;;5112588;27;20411;-62
2021/05/24 13:08:50;;;;;;;0.50;0.50;;;;;;;;;;5122098;27;20420;-63
2021/05/24 13:11:17;;;;;;;0.70;0.70;;;;;;;;;;5122387;27;20420;-64
2021/05/24 13:13:43;;;;;;;0.87;0.87;;;;;;;;;;5121092;27;20480;-64
2021/05/24 13:16:29;;;;;;;1.23;1.07;;;;;;;;;;5122110;27;20948;-64
2021/05/24 13:19:17;;;;;;;0.90;0.63;;;;;;;;;;5123368;27;20414;-64
2021/05/24 13:22:25;;;;;;;0.63;0.40;;;;;;;;;;5131735;27;20418;-64
2021/05/24 13:25:00;;;;;;;0.50;0.40;;;;;;;;;;5129420;27;20437;-65
2021/05/24 13:30:06;;;;;;;0.80;0.80;;;;;;;;;;5130267;27;20381;-64
2021/05/24 13:32:32;;;;;;;0.57;0.57;;;;;;;;;;5130915;27;20446;-64
2021/05/24 13:34:58;;;;;;;0.53;0.53;;;;;;;;;;5131314;27;21011;-64
2021/05/24 13:37:25;;;;;;;2.53;0.60;;;;;;;;;;5131993;27;20456;-64
2021/05/24 13:39:58;;;;;;;0.83;0.50;;;;;;;;;;5131559;27;20951;-64
2021/05/24 13:42:25;;;;;;;0.67;0.57;;;;;;;;;;5131709;27;20425;-64
2021/05/24 13:44:51;;;;;;;0.53;0.50;;;;;;;;;;5131894;27;20523;-64
2021/05/24 13:47:19;;;;;;;0.57;0.53;;;;;;;;;;5131833;27;20410;-64
2021/05/24 13:49:45;;;;;;;0.80;0.50;;;;;;;;;;5131709;27;20880;-64
2021/05/24 13:52:11;;;;;;;0.80;0.80;;;;;;;;;;5131782;27;20422;-64
2021/05/24 13:54:37;;;;;;;0.60;0.60;;;;;;;;;;5131880;27;20457;-65
2021/05/24 13:57:03;;;;;;;0.50;0.50;;;;;;;;;;5131728;28;20911;-64
2021/05/24 13:59:29;;;;;;;1.13;0.80;;;;;;;;;;5113074;28;20857;-64
2021/05/24 14:01:55;;;;;;;0.50;0.40;;;;;;;;;;5131792;28;20433;-65
2021/05/24 14:04:21;;;;;;;0.90;0.67;;;;;;;;;;5122305;28;20502;-65
2021/05/24 14:06:47;;;;;;;1.77;0.80;;;;;;;;;;5099470;28;20469;-64
2021/05/24 14:09:15;;;;;;;1.10;0.80;;;;;;;;;;5092247;28;20925;-64
2021/05/24 14:11:41;;;;;;;0.40;0.40;;;;;;;;;;5094415;28;20884;-64
2021/05/24 14:14:07;;;;;;;1.23;0.90;;;;;;;;;;5105211;28;20553;-64
2021/05/24 14:16:33;;;;;;;0.50;0.50;;;;;;;;;;5110494;28;20406;-64
2021/05/24 14:18:59;;;;;;;0.50;0.50;;;;;;;;;;5094047;28;20403;-64
2021/05/24 14:21:25;;;;;;;0.50;0.50;;;;;;;;;;5127246;27;20490;-64
2021/05/24 14:23:51;;;;;;;0.60;0.60;;;;;;;;;;5135664;27;20406;-64
2021/05/24 14:26:17;;;;;;;0.67;0.67;;;;;;;;;;5135267;27;20392;-64
2021/05/24 14:28:45;;;;;;;0.60;0.40;;;;;;;;;;5116634;27;20505;-64
2021/05/24 14:31:10;;;;;;;0.80;0.80;;;;;;;;;;5114816;28;20398;-64
2021/05/24 14:33:37;;;;;;;0.60;0.50;;;;;;;;;;5114763;28;20972;-64
2021/05/24 14:36:04;;;;;;;0.80;0.80;;;;;;;;;;5114846;28;20839;-64
2021/05/24 14:38:30;;;;;;;0.60;0.50;;;;;;;;;;5113737;28;20418;-64
2021/05/24 14:40:56;;;;;;;0.40;0.30;;;;;;;;;;5109256;28;20435;-64
2021/05/24 14:43:23;;;;;;;0.60;0.60;;;;;;;;;;5094820;28;20408;-64
2021/05/24 14:45:49;;;;;;;1.57;0.60;;;;;;;;;;5107917;28;20466;-64
2021/05/24 14:48:15;;;;;;;2.67;0.50;;;;;;;;;;5104635;28;20430;-64
2021/05/24 14:50:52;;;;;;;3.23;0.93;;;;;;;;;;5114475;28;20422;-64